^^
Saratoga-Weather Station Historical Data
Daily Summary for July 24, 2021 Units:  English    Metric   Both
Daily Weekly Monthly Yearly Custom
  High: Low: Average:
Temperature: 44.2 °F 29.8 °F 38.3 °F
Dew Point: 37.9 °F 28.4 °F 34.7 °F
Humidity: 95% 71% 87%
Wind Speed: 8.1mph 0mph 1mph
Wind Gust: 12mph - -
Wind- - ESE
Pressure: 30.3 in 29.9 in -
Precipitation: 0 in    
Historical Graphs
 
 
Tabular Data for July 24, 2021
Time Temperature Dew Point Pressure Wind Wind Speed Wind Gust Humidity Rainfall Rate (Hourly) solar
00:03 39.4 °F 37 °F 30.3 in Calm     91% 0 in 0 W/m2
00:08 39.2 °F 36.9 °F 30.3 in Calm     91% 0 in 0 W/m2
00:13 39 °F 36.7 °F 30.3 in East 0.9 mph 1 mph 91% 0 in 0 W/m2
00:18 38.8 °F 36.7 °F 30.3 in Calm   1 mph 92% 0 in 0 W/m2
00:23 38.8 °F 36.7 °F 30.3 in Calm   1 mph 92% 0 in 0 W/m2
00:28 38.8 °F 36.7 °F 30.3 in NE 0.9 mph 2 mph 92% 0 in 0 W/m2
00:33 38.8 °F 36.7 °F 30.3 in Calm   1 mph 92% 0 in 0 W/m2
00:38 38.8 °F 37 °F 30.3 in Calm   2 mph 93% 0 in 0 W/m2
00:43 38.7 °F 36.9 °F 30.3 in Calm   1 mph 93% 0 in 0 W/m2
00:48 38.7 °F 36.9 °F 30.3 in Calm     93% 0 in 0 W/m2
00:53 38.7 °F 36.9 °F 30.3 in Calm   1 mph 93% 0 in 0 W/m2
00:58 38.5 °F 36.7 °F 30.3 in Calm     93% 0 in 0 W/m2
01:03 38.3 °F 36.1 °F 30.3 in Calm   3 mph 92% 0 in 0 W/m2
01:08 38.1 °F 36.3 °F 30.3 in Calm   2 mph 93% 0 in 0 W/m2
01:13 38.1 °F 36.3 °F 30.3 in Calm     93% 0 in 0 W/m2
01:18 37.9 °F 36.1 °F 30.3 in Calm     93% 0 in 0 W/m2
01:23 37.8 °F 36 °F 30.3 in Calm     93% 0 in 0 W/m2
01:28 37.6 °F 35.8 °F 30.3 in Calm     93% 0 in 0 W/m2
01:33 37.4 °F 35.6 °F 30.3 in Calm     93% 0 in 0 W/m2
01:38 37.2 °F 35.4 °F 30.3 in Calm     93% 0 in 0 W/m2
01:43 37.2 °F 35.4 °F 30.3 in Calm     93% 0 in 0 W/m2
01:48 37 °F 35.4 °F 30.3 in Calm     94% 0 in 0 W/m2
01:53 36.9 °F 35.1 °F 30.3 in Calm   3 mph 93% 0 in 0 W/m2
01:58 36.7 °F 34.9 °F 30.3 in Calm     93% 0 in 0 W/m2
02:03 36.3 °F 34.7 °F 30.3 in SW 0.9 mph 2 mph 94% 0 in 0 W/m2
02:08 36.5 °F 34.9 °F 30.3 in Calm   1 mph 94% 0 in 0 W/m2
02:13 36.3 °F 34.7 °F 30.3 in SW 0.9 mph 2 mph 94% 0 in 0 W/m2
02:18 36.3 °F 34.7 °F 30.3 in SW 0.9 mph 1 mph 94% 0 in 0 W/m2
02:23 36.3 °F 34.7 °F 30.3 in Calm   1 mph 94% 0 in 0 W/m2
02:28 36.1 °F 34.5 °F 30.3 in Calm     94% 0 in 0 W/m2
02:33 36.1 °F 34.5 °F 30.3 in West 0.9 mph 3 mph 94% 0 in 0 W/m2
02:38 36.3 °F 34.7 °F 30.3 in Calm   2 mph 94% 0 in 0 W/m2
02:43 36.3 °F 34.7 °F 30.3 in Calm     94% 0 in 0 W/m2
02:48 36.1 °F 34.5 °F 30.3 in Calm     94% 0 in 0 W/m2
02:53 36.1 °F 34.5 °F 30.3 in Calm     94% 0 in 0 W/m2
02:58 36 °F 34.3 °F 30.3 in Calm     94% 0 in 0 W/m2
03:03 35.8 °F 34.2 °F 30.3 in Calm     94% 0 in 0 W/m2
03:08 35.6 °F 34 °F 30.3 in Calm     94% 0 in 0 W/m2
03:13 35.4 °F 33.8 °F 30.3 in Calm     94% 0 in 0 W/m2
03:18 35.6 °F 34.3 °F 30.3 in Calm   1 mph 95% 0 in 0 W/m2
03:23 35.8 °F 34.5 °F 30.3 in Calm     95% 0 in 0 W/m2
03:28 36 °F 34.7 °F 30.3 in West 2 mph 2 mph 95% 0 in 0 W/m2
03:33 36.3 °F 35.1 °F 30.3 in Calm   1 mph 95% 0 in 0 W/m2
03:43 36.9 °F 35.6 °F 30.3 in West 0.9 mph 1 mph 95% 0 in 0 W/m2
03:48 36.9 °F 35.6 °F 30.3 in Calm   3 mph 95% 0 in 0 W/m2
03:53 37 °F 35.8 °F 30.3 in WNW 0.9 mph 2 mph 95% 0 in 0 W/m2
03:58 37 °F 35.8 °F 30.3 in Calm   1 mph 95% 0 in 0 W/m2
04:03 37.2 °F 36 °F 30.3 in Calm   1 mph 95% 0 in 0 W/m2
04:08 37.2 °F 36 °F 30.3 in West 2 mph 2 mph 95% 0 in 0 W/m2
04:13 37.2 °F 36 °F 30.3 in Calm   3 mph 95% 0 in 0 W/m2
04:18 37.4 °F 36.1 °F 30.3 in Calm   1 mph 95% 0 in 0 W/m2
04:23 37.4 °F 36.1 °F 30.3 in Calm   3 mph 95% 0 in 0 W/m2
04:28 37.4 °F 36.1 °F 30.3 in Calm   1 mph 95% 0 in 0 W/m2
04:33 37.6 °F 36.3 °F 30.3 in Calm   1 mph 95% 0 in 0 W/m2
04:39 37.6 °F 36.3 °F 30.3 in WNW 0.9 mph 2 mph 95% 0 in 0 W/m2
04:44 37.6 °F 36.3 °F 30.3 in NW 0.9 mph 2 mph 95% 0 in 0 W/m2
04:49 37.8 °F 36.5 °F 30.3 in Calm     95% 0 in 0 W/m2
04:54 37.8 °F 36.5 °F 30.2 in Calm   3 mph 95% 0 in 0 W/m2
04:59 37.8 °F 36.5 °F 30.2 in Calm   2 mph 95% 0 in 0 W/m2
05:04 37.9 °F 36.7 °F 30.2 in Calm   3 mph 95% 0 in 0 W/m2
05:09 37.9 °F 36.7 °F 30.2 in Calm   1 mph 95% 0 in 0 W/m2
05:14 38.1 °F 36.9 °F 30.2 in Calm   2 mph 95% 0 in 0 W/m2
05:19 38.5 °F 37.2 °F 30.2 in Calm     95% 0 in 0 W/m2
05:24 38.7 °F 37.4 °F 30.2 in Calm   1 mph 95% 0 in 0 W/m2
05:29 38.8 °F 37.2 °F 30.2 in SSW 2 mph 2 mph 94% 0 in 0 W/m2
05:34 39 °F 37.4 °F 30.2 in ESE 2 mph 3 mph 94% 0 in 0 W/m2
05:39 39.2 °F 37.6 °F 30.2 in ESE 2 mph 2 mph 94% 0 in 0 W/m2
05:44 39.6 °F 37.8 °F 30.2 in Calm   2 mph 93% 0 in 0 W/m2
05:49 39.7 °F 37.9 °F 30.2 in NE 5 mph 5 mph 93% 0 in 0 W/m2
05:54 39.9 °F 37.8 °F 30.2 in Calm   1 mph 92% 0 in 0 W/m2
05:59 40.3 °F 37.9 °F 30.2 in ENE 5 mph 5 mph 91% 0 in 0 W/m2
06:04 40.3 °F 37.9 °F 30.2 in Calm   4 mph 91% 0 in 0 W/m2
06:09 40.5 °F 37.8 °F 30.2 in Calm   2 mph 90% 0 in 0 W/m2
06:14 40.5 °F 37.8 °F 30.2 in SE 0.9 mph 4 mph 90% 0 in 0 W/m2
06:19 40.5 °F 37.8 °F 30.2 in East 0.9 mph 2 mph 90% 0 in 0 W/m2
06:29 40.5 °F 37.4 °F 30.2 in East 6 mph 6 mph 89% 0 in 0 W/m2
06:34 40.6 °F 37.6 °F 30.2 in ENE 2.9 mph 4 mph 89% 0 in 0 W/m2
06:39 40.6 °F 37.6 °F 30.2 in NNE 2 mph 3 mph 89% 0 in 0 W/m2
06:44 40.6 °F 37.6 °F 30.2 in ENE 4 mph 7 mph 89% 0 in 0 W/m2
06:49 40.6 °F 37.4 °F 30.2 in ESE 2 mph 3 mph 88% 0 in 0 W/m2
06:54 40.6 °F 37.4 °F 30.2 in East 0.9 mph 7 mph 88% 0 in 0 W/m2
06:59 40.6 °F 37.4 °F 30.2 in SE 2 mph 3 mph 88% 0 in 0 W/m2
07:04 40.8 °F 37.6 °F 30.2 in East 2 mph 3 mph 88% 0 in 0 W/m2
07:09 40.6 °F 37.4 °F 30.2 in ENE 4 mph 6 mph 88% 0 in 0 W/m2
07:14 40.8 °F 37.6 °F 30.2 in SSE 0.9 mph 3 mph 88% 0 in 0 W/m2
07:19 40.6 °F 37.4 °F 30.2 in Calm   5 mph 88% 0 in 0 W/m2
07:24 40.6 °F 37.4 °F 30.2 in ENE 2 mph 4 mph 88% 0 in 0 W/m2
07:29 40.6 °F 37.4 °F 30.2 in ESE 2 mph 3 mph 88% 0 in 0 W/m2
07:34 40.5 °F 37.2 °F 30.2 in East 0.9 mph 3 mph 88% 0 in 0 W/m2
07:39 40.5 °F 36.9 °F 30.2 in Calm   1 mph 87% 0 in 0 W/m2
07:44 40.5 °F 36.9 °F 30.2 in ENE 2 mph 3 mph 87% 0 in 0 W/m2
07:49 40.3 °F 36.7 °F 30.2 in ESE 0.9 mph 3 mph 87% 0 in 0 W/m2
07:54 40.3 °F 36.7 °F 30.2 in ESE 2 mph 2 mph 87% 0 in 0 W/m2
07:59 40.3 °F 36.7 °F 30.2 in ESE 2 mph 2 mph 87% 0 in 0 W/m2
08:04 40.1 °F 36.9 °F 30.2 in East 0.9 mph 4 mph 88% 0 in 7 W/m2
08:09 39.9 °F 36.7 °F 30.2 in East 0.9 mph 1 mph 88% 0 in 11 W/m2
08:14 39.9 °F 36.7 °F 30.2 in ESE 0.9 mph 3 mph 88% 0 in 14 W/m2
08:19 39.7 °F 36.5 °F 30.2 in East 0.9 mph 2 mph 88% 0 in 18 W/m2
08:24 39.7 °F 36.5 °F 30.2 in SE 0.9 mph 3 mph 88% 0 in 21 W/m2
08:29 39.7 °F 36.5 °F 30.2 in ESE 2 mph 3 mph 88% 0 in 23 W/m2
08:34 39.7 °F 36.5 °F 30.2 in Calm   2 mph 88% 0 in 26 W/m2
08:39 39.7 °F 36.5 °F 30.2 in ENE 2.9 mph 4 mph 88% 0 in 30 W/m2
08:44 39.7 °F 36.5 °F 30.2 in Calm   2 mph 88% 0 in 37 W/m2
08:49 39.7 °F 36.5 °F 30.2 in ESE 4 mph 5 mph 88% 0 in 42 W/m2
08:54 39.9 °F 36.7 °F 30.2 in East 2 mph 3 mph 88% 0 in 49 W/m2
08:59 40.1 °F 36.9 °F 30.2 in ENE 2 mph 3 mph 88% 0 in 56 W/m2
09:04 40.3 °F 37 °F 30.2 in East 0.9 mph 1 mph 88% 0 in 42 W/m2
09:09 40.3 °F 36.7 °F 30.2 in ESE 2 mph 3 mph 87% 0 in 60 W/m2
09:14 40.5 °F 36.9 °F 30.2 in Calm   6 mph 87% 0 in 28 W/m2
09:19 40.5 °F 36.7 °F 30.2 in East 2 mph 4 mph 86% 0 in 37 W/m2
09:24 40.5 °F 36.7 °F 30.2 in Calm   6 mph 86% 0 in 58 W/m2
09:29 40.6 °F 36.9 °F 30.2 in East 4 mph 4 mph 86% 0 in 77 W/m2
09:34 40.6 °F 36.9 °F 30.2 in SE 2.9 mph 4 mph 86% 0 in 81 W/m2
09:39 40.8 °F 37 °F 30.2 in NE 2 mph 7 mph 86% 0 in 81 W/m2
09:44 40.8 °F 37 °F 30.2 in Calm   4 mph 86% 0 in 56 W/m2
09:49 40.8 °F 37 °F 30.2 in ESE 2.9 mph 7 mph 86% 0 in 56 W/m2
09:54 41 °F 37.2 °F 30.2 in ESE 0.9 mph 4 mph 86% 0 in 44 W/m2
09:59 41 °F 36.9 °F 30.2 in NE 2 mph 6 mph 85% 0 in 51 W/m2
10:04 41 °F 36.9 °F 30.2 in ESE 8.1 mph 8 mph 85% 0 in 76 W/m2
10:09 41 °F 36.9 °F 30.2 in ESE 2 mph 7 mph 85% 0 in 107 W/m2
10:14 41.2 °F 37 °F 30.2 in East 2.9 mph 6 mph 85% 0 in 97 W/m2
10:19 41.4 °F 37.2 °F 30.2 in Calm   3 mph 85% 0 in 121 W/m2
10:24 41.5 °F 37.4 °F 30.2 in ESE 2 mph 9 mph 85% 0 in 118 W/m2
10:29 41.7 °F 37.2 °F 30.2 in East 2.9 mph 5 mph 84% 0 in 113 W/m2
10:34 41.9 °F 37 °F 30.2 in ESE 0.9 mph 10 mph 83% 0 in 107 W/m2
10:39 42.1 °F 37.6 °F 30.2 in SE 8.1 mph 9 mph 84% 0 in 107 W/m2
10:44 42.3 °F 37.4 °F 30.2 in ESE 4 mph 9 mph 83% 0 in 111 W/m2
10:49 42.3 °F 37.2 °F 30.2 in ESE 2.9 mph 8 mph 82% 0 in 72 W/m2
10:54 42.1 °F 37 °F 30.2 in ESE 2.9 mph 12 mph 82% 0 in 42 W/m2
10:59 41.7 °F 36.7 °F 30.2 in ESE 6 mph 8 mph 82% 0 in 58 W/m2
11:04 41.5 °F 36.5 °F 30.2 in ENE 2.9 mph 11 mph 82% 0 in 44 W/m2
11:09 41.5 °F 36.5 °F 30.2 in SE 8.1 mph 9 mph 82% 0 in 62 W/m2
11:14 41.5 °F 36.5 °F 30.2 in East 2.9 mph 9 mph 82% 0 in 58 W/m2
11:19 41.5 °F 36.7 °F 30.2 in East 2.9 mph 7 mph 83% 0 in 47 W/m2
11:24 41.7 °F 36.7 °F 30.2 in ENE 0.9 mph 3 mph 82% 0 in 46 W/m2
11:29 42.1 °F 37 °F 30.1 in NE 2 mph 2 mph 82% 0 in 84 W/m2
11:34 42.1 °F 36.7 °F 30.1 in East 0.9 mph 8 mph 81% 0 in 95 W/m2
11:39 42.3 °F 36.9 °F 30.1 in NNE 0.9 mph 4 mph 81% 0 in 76 W/m2
11:44 42.3 °F 36.5 °F 30.1 in SSE 2 mph 8 mph 80% 0 in 95 W/m2
11:49 42.4 °F 36.7 °F 30.1 in East 2.9 mph 10 mph 80% 0 in 60 W/m2
11:54 42.4 °F 36.7 °F 30.1 in NE 2 mph 8 mph 80% 0 in 98 W/m2
12:04 42.8 °F 37 °F 30.1 in ENE 4 mph 4 mph 80% 0 in 91 W/m2
12:09 42.8 °F 36.7 °F 30.1 in NE 4 mph 7 mph 79% 0 in 91 W/m2
12:14 43 °F 36.9 °F 30.1 in NW 4 mph 7 mph 79% 0 in 70 W/m2
12:19 43 °F 36.9 °F 30.1 in NE 0.9 mph 5 mph 79% 0 in 54 W/m2
12:24 43.2 °F 36.7 °F 30.1 in East 6 mph 10 mph 78% 0 in 62 W/m2
12:34 43.2 °F 36.7 °F 30.1 in ENE 2.9 mph 5 mph 78% 0 in 53 W/m2
12:39 43.3 °F 36.9 °F 30.1 in ESE 2 mph 6 mph 78% 0 in 62 W/m2
12:44 43.3 °F 36.7 °F 30.1 in East 0.9 mph 8 mph 77% 0 in 47 W/m2
12:49 43.3 °F 36.7 °F 30.1 in NE 2 mph 6 mph 77% 0 in 47 W/m2
12:54 43.5 °F 36.9 °F 30.1 in East 0.9 mph 5 mph 77% 0 in 49 W/m2
12:59 43.5 °F 36.9 °F 30.1 in ENE 4 mph 6 mph 77% 0 in 33 W/m2
13:04 43.5 °F 36.9 °F 30.1 in ESE 0.9 mph 4 mph 77% 0 in 32 W/m2
13:09 43.5 °F 36.9 °F 30.1 in SE 0.9 mph 5 mph 77% 0 in 39 W/m2
13:14 43.5 °F 36.5 °F 30.1 in ESE 2 mph 4 mph 76% 0 in 39 W/m2
13:19 43.7 °F 36.7 °F 30.1 in ESE 2.9 mph 6 mph 76% 0 in 32 W/m2
13:25 43.7 °F 36.7 °F 30.1 in NE 2 mph 3 mph 76% 0 in 30 W/m2
13:30 43.9 °F 36.9 °F 30.1 in WNW 2 mph 5 mph 76% 0 in 30 W/m2
13:40 44.1 °F 36.7 °F 30.1 in NNE 0.9 mph 3 mph 75% 0 in 28 W/m2
13:45 44.2 °F 36.5 °F 30.1 in NE 2 mph 7 mph 74% 0 in 32 W/m2
13:50 44.2 °F 36.5 °F 30.1 in ENE 2 mph 5 mph 74% 0 in 28 W/m2
13:55 44.2 °F 36.5 °F 30.1 in NNE 0.9 mph 6 mph 74% 0 in 39 W/m2
14:00 44.2 °F 36.5 °F 30.1 in Calm   4 mph 74% 0 in 28 W/m2
14:05 44.2 °F 36.5 °F 30.1 in ENE 2 mph 5 mph 74% 0 in 26 W/m2
14:10 44.2 °F 36.5 °F 30.1 in ENE 2.9 mph 4 mph 74% 0 in 26 W/m2
14:15 44.2 °F 36.1 °F 30.1 in East 4 mph 7 mph 73% 0 in 26 W/m2
14:20 44.2 °F 36.1 °F 30.1 in ESE 4 mph 8 mph 73% 0 in 25 W/m2
14:25 44.1 °F 35.6 °F 30.1 in East 4.9 mph 10 mph 72% 0 in 25 W/m2
14:35 43.9 °F 35.4 °F 30.1 in ESE 2 mph 10 mph 72% 0 in 23 W/m2
14:40 43.7 °F 35.2 °F 30.1 in Calm   3 mph 72% 0 in 23 W/m2
14:45 43.5 °F 35.4 °F 30.1 in ESE 6.9 mph 7 mph 73% 0 in 23 W/m2
14:50 43.3 °F 34.9 °F 30.1 in ESE 2 mph 8 mph 72% 0 in 21 W/m2
14:55 43.3 °F 34.9 °F 30.1 in East 2.9 mph 5 mph 72% 0 in 21 W/m2
15:00 43.5 °F 35.1 °F 30.1 in ENE 0.9 mph 8 mph 72% 0 in 21 W/m2
15:05 43.5 °F 35.1 °F 30 in ESE 2 mph 6 mph 72% 0 in 21 W/m2
15:10 43.5 °F 34.7 °F 30 in ESE 2 mph 4 mph 71% 0 in 21 W/m2
15:15 43.5 °F 34.7 °F 30 in ENE 2.9 mph 7 mph 71% 0 in 21 W/m2
15:20 43.5 °F 35.1 °F 30 in East 0.9 mph 3 mph 72% 0 in 19 W/m2
15:25 43.3 °F 34.9 °F 30 in East 2.9 mph 5 mph 72% 0 in 19 W/m2
15:30 43.2 °F 35.1 °F 30 in ESE 0.9 mph 2 mph 73% 0 in 19 W/m2
15:35 43 °F 35.2 °F 30 in ESE 2.9 mph 4 mph 74% 0 in 19 W/m2
15:40 43 °F 35.2 °F 30 in ENE 2 mph 4 mph 74% 0 in 18 W/m2
15:45 43 °F 35.2 °F 30 in East 0.9 mph 4 mph 74% 0 in 18 W/m2
15:50 42.8 °F 35.1 °F 30 in Calm   7 mph 74% 0 in 18 W/m2
16:00 42.6 °F 34.9 °F 30 in Calm   2 mph 74% 0 in 16 W/m2
16:05 42.4 °F 35.1 °F 30 in Calm     75% 0 in 14 W/m2
16:10 42.3 °F 34.9 °F 30 in East 2 mph 3 mph 75% 0 in 14 W/m2
16:15 42.1 °F 34.7 °F 30 in East 2 mph 3 mph 75% 0 in 12 W/m2
16:20 42.1 °F 35.1 °F 30 in Calm   3 mph 76% 0 in 11 W/m2
16:25 41.9 °F 34.9 °F 30 in East 0.9 mph 2 mph 76% 0 in 11 W/m2
16:35 41.5 °F 34.9 °F 30 in East 0.9 mph 3 mph 77% 0 in 7 W/m2
16:40 41.2 °F 34.9 °F 30 in Calm     78% 0 in 5 W/m2
16:45 40.8 °F 34.5 °F 30 in Calm   3 mph 78% 0 in 0 W/m2
16:51 40.6 °F 34.3 °F 30 in Calm     78% 0 in 0 W/m2
16:56 40.3 °F 34.3 °F 30 in Calm     79% 0 in 0 W/m2
17:01 39.9 °F 34.3 °F 30 in Calm     80% 0 in 0 W/m2
17:06 39.9 °F 34.3 °F 30 in Calm     80% 0 in 0 W/m2
17:11 39.4 °F 34 °F 30 in Calm   1 mph 81% 0 in 0 W/m2
17:16 39 °F 33.6 °F 30 in Calm   1 mph 81% 0 in 0 W/m2
17:21 38.8 °F 33.8 °F 30 in Calm     82% 0 in 0 W/m2
17:26 38.7 °F 33.6 °F 30 in East 0.9 mph 2 mph 82% 0 in 0 W/m2
17:31 38.5 °F 33.8 °F 30 in Calm     83% 0 in 0 W/m2
17:36 38.1 °F 33.4 °F 30 in Calm   2 mph 83% 0 in 0 W/m2
17:41 37.9 °F 33.6 °F 30 in Calm   2 mph 84% 0 in 0 W/m2
17:46 37.8 °F 33.4 °F 30 in Calm   1 mph 84% 0 in 0 W/m2
17:51 37.8 °F 33.4 °F 30 in Calm   1 mph 84% 0 in 0 W/m2
17:56 37.6 °F 33.4 °F 30 in Calm     85% 0 in 0 W/m2
18:01 37.4 °F 33.3 °F 30 in East 0.9 mph 1 mph 85% 0 in 0 W/m2
18:06 37.2 °F 33.1 °F 30 in ESE 2 mph 2 mph 85% 0 in 0 W/m2
18:11 37.2 °F 33.1 °F 30 in ENE 0.9 mph 1 mph 85% 0 in 0 W/m2
18:16 37 °F 32.9 °F 30 in Calm     85% 0 in 0 W/m2
18:21 37 °F 32.9 °F 30 in Calm     85% 0 in 0 W/m2
18:26 36.9 °F 32.7 °F 30 in Calm     85% 0 in 0 W/m2
18:31 36.5 °F 32.4 °F 30 in Calm     85% 0 in 0 W/m2
18:36 36.3 °F 32.5 °F 30 in Calm     86% 0 in 0 W/m2
18:41 36.1 °F 32.4 °F 30 in Calm     86% 0 in 0 W/m2
18:46 35.8 °F 32 °F 30 in Calm     86% 0 in 0 W/m2
18:51 35.8 °F 32.4 °F 30 in Calm   1 mph 87% 0 in 0 W/m2
18:56 35.4 °F 32 °F 30 in Calm     87% 0 in 0 W/m2
19:01 35.4 °F 32 °F 30 in Calm     87% 0 in 0 W/m2
19:06 35.2 °F 32 °F 30 in Calm   1 mph 88% 0 in 0 W/m2
19:11 35.1 °F 31.8 °F 30 in Calm     88% 0 in 0 W/m2
19:16 34.9 °F 31.6 °F 30 in ESE 1 mph 1 mph 88% 0 in 0 W/m2
19:21 34.5 °F 31.3 °F 30 in Calm   1 mph 88% 0 in 0 W/m2
19:26 34.3 °F 31.1 °F 30 in Calm     88% 0 in 0 W/m2
19:31 34.2 °F 31.3 °F 30 in Calm   1 mph 89% 0 in 0 W/m2
19:36 34.2 °F 31.3 °F 30 in Calm     89% 0 in 0 W/m2
19:41 34 °F 31.1 °F 30 in Calm     89% 0 in 0 W/m2
19:46 33.6 °F 30.9 °F 30 in Calm     90% 0 in 0 W/m2
19:51 33.4 °F 30.7 °F 30 in Calm     90% 0 in 0 W/m2
19:56 33.3 °F 30.6 °F 30 in Calm     90% 0 in 0 W/m2
20:01 33.1 °F 30.4 °F 30 in Calm     90% 0 in 0 W/m2
20:06 32.9 °F 30.4 °F 30 in Calm     90% 0 in 0 W/m2
20:11 32.7 °F 30.4 °F 30 in Calm     91% 0 in 0 W/m2
20:16 32.7 °F 30.4 °F 30 in Calm     91% 0 in 0 W/m2
20:21 32.7 °F 30.4 °F 30 in Calm     91% 0 in 0 W/m2
20:26 32.7 °F 30.4 °F 30 in Calm     91% 0 in 0 W/m2
20:31 32.7 °F 30.4 °F 30 in Calm     91% 0 in 0 W/m2
20:36 32.5 °F 30.6 °F 30 in Calm     92% 0 in 0 W/m2
20:41 32.4 °F 30.4 °F 30 in Calm     92% 0 in 0 W/m2
20:46 32.4 °F 30.4 °F 30 in Calm     92% 0 in 0 W/m2
20:51 32.2 °F 30.2 °F 30 in Calm     92% 0 in 0 W/m2
20:56 32 °F 30 °F 30 in Calm     92% 0 in 0 W/m2
21:01 31.8 °F 29.8 °F 30 in Calm     92% 0 in 0 W/m2
21:06 31.8 °F 29.8 °F 30 in Calm     92% 0 in 0 W/m2
21:11 31.8 °F 29.8 °F 30 in Calm     92% 0 in 0 W/m2
21:16 31.8 °F 30 °F 30 in Calm     93% 0 in 0 W/m2
21:21 31.8 °F 30 °F 29.9 in Calm     93% 0 in 0 W/m2
21:26 31.8 °F 30 °F 29.9 in Calm     93% 0 in 0 W/m2
21:31 31.8 °F 30 °F 29.9 in Calm     93% 0 in 0 W/m2
21:36 31.6 °F 29.8 °F 29.9 in Calm     93% 0 in 0 W/m2
21:41 31.5 °F 29.7 °F 29.9 in Calm     93% 0 in 0 W/m2
21:46 31.5 °F 29.7 °F 29.9 in Calm     93% 0 in 0 W/m2
21:51 31.3 °F 29.5 °F 29.9 in Calm     93% 0 in 0 W/m2
21:56 31.1 °F 29.3 °F 29.9 in Calm     93% 0 in 0 W/m2
22:01 31.1 °F 29.3 °F 29.9 in Calm     93% 0 in 0 W/m2
22:06 31.1 °F 29.3 °F 29.9 in Calm     93% 0 in 0 W/m2
22:11 30.9 °F 29.1 °F 29.9 in Calm     93% 0 in 0 W/m2
22:16 30.9 °F 29.1 °F 29.9 in Calm     93% 0 in 0 W/m2
22:21 30.9 °F 29.1 °F 29.9 in Calm     93% 0 in 0 W/m2
22:26 30.7 °F 28.9 °F 29.9 in Calm     93% 0 in 0 W/m2
22:31 30.7 °F 28.9 °F 29.9 in Calm     93% 0 in 0 W/m2
22:36 30.6 °F 28.8 °F 29.9 in Calm     93% 0 in 0 W/m2
22:41 30.6 °F 29.1 °F 29.9 in Calm     94% 0 in 0 W/m2
22:46 30.4 °F 28.6 °F 29.9 in Calm     93% 0 in 0 W/m2
22:51 30.4 °F 28.9 °F 29.9 in Calm     94% 0 in 0 W/m2
22:56 30.4 °F 28.9 °F 29.9 in Calm     94% 0 in 0 W/m2
23:01 30.4 °F 28.9 °F 29.9 in Calm     94% 0 in 0 W/m2
23:07 30.2 °F 28.8 °F 29.9 in Calm     94% 0 in 0 W/m2
23:12 30.2 °F 28.8 °F 29.9 in Calm     94% 0 in 0 W/m2
23:17 30 °F 28.6 °F 29.9 in Calm     94% 0 in 0 W/m2
23:22 30 °F 28.6 °F 29.9 in Calm     94% 0 in 0 W/m2
23:27 30 °F 28.6 °F 29.9 in Calm     94% 0 in 0 W/m2
23:32 30 °F 28.6 °F 29.9 in Calm     94% 0 in 0 W/m2
23:37 30 °F 28.6 °F 29.9 in Calm     94% 0 in 0 W/m2
23:42 30 °F 28.6 °F 29.9 in Calm     94% 0 in 0 W/m2
23:47 30 °F 28.6 °F 29.9 in Calm     94% 0 in 0 W/m2
23:52 29.8 °F 28.4 °F 29.9 in Calm     94% 0 in 0 W/m2
23:57 29.8 °F 28.4 °F 29.9 in Calm     94% 0 in 0 W/m2
Juneau County Weather
Compliments of Weather Underground - 4 mb